createdAt,value
2017-11-13T00:00:55.367Z,2.63
2017-11-13T00:03:24.228Z,2.20
2017-11-13T00:05:53.080Z,2.27
2017-11-13T00:08:22.003Z,2.00
2017-11-13T00:10:50.866Z,1.90
2017-11-13T00:13:19.702Z,2.00
2017-11-13T00:15:48.549Z,1.63
2017-11-13T00:18:18.240Z,2.07
2017-11-13T00:20:47.086Z,2.13
2017-11-13T00:23:15.958Z,1.97
2017-11-13T00:25:44.814Z,2.07
2017-11-13T00:28:13.674Z,1.53
2017-11-13T00:30:43.332Z,2.17
2017-11-13T00:33:12.207Z,1.93
2017-11-13T00:35:41.046Z,2.63
2017-11-13T00:38:09.884Z,1.90
2017-11-13T00:40:38.745Z,2.20
2017-11-13T00:43:07.610Z,1.80
2017-11-13T00:45:36.500Z,2.10
2017-11-13T00:48:05.495Z,2.20
2017-11-13T00:50:34.352Z,2.10
2017-11-13T00:53:03.216Z,2.20
2017-11-13T00:55:32.616Z,3.23
2017-11-13T00:58:01.785Z,2.20
2017-11-13T01:00:30.620Z,2.33
2017-11-13T01:02:59.482Z,2.30
2017-11-13T01:05:28.665Z,2.43
2017-11-13T01:07:57.548Z,2.13
2017-11-13T01:10:26.395Z,2.57
2017-11-13T01:12:55.238Z,2.30
2017-11-13T01:15:24.143Z,1.80
2017-11-13T01:17:54.950Z,1.97
2017-11-13T01:20:23.798Z,2.10
2017-11-13T01:22:53.518Z,2.00
2017-11-13T01:25:22.354Z,2.30
2017-11-13T01:27:51.200Z,2.00
2017-11-13T01:30:20.078Z,2.00
2017-11-13T01:32:48.910Z,1.87
2017-11-13T01:35:17.742Z,2.07
2017-11-13T01:37:46.594Z,2.07
2017-11-13T01:40:15.440Z,2.10
2017-11-13T01:42:44.282Z,2.10
2017-11-13T01:45:13.146Z,2.30
2017-11-13T01:47:42.000Z,1.60
2017-11-13T01:50:10.844Z,2.37
2017-11-13T01:52:39.730Z,2.10
2017-11-13T01:55:08.580Z,2.00
2017-11-13T01:57:37.417Z,2.37
2017-11-13T02:00:06.284Z,2.07
2017-11-13T02:02:35.123Z,2.30
2017-11-13T02:05:03.973Z,1.87
2017-11-13T02:07:32.891Z,2.63
2017-11-13T02:10:02.742Z,2.43
2017-11-13T02:12:31.616Z,2.37
2017-11-13T02:15:00.489Z,2.30
2017-11-13T02:17:29.364Z,2.23
2017-11-13T02:19:58.238Z,2.13
2017-11-13T02:22:27.137Z,2.00
2017-11-13T02:24:56.018Z,2.23
2017-11-13T02:27:24.868Z,2.13
2017-11-13T02:29:53.753Z,2.27
2017-11-13T02:32:22.619Z,2.00
2017-11-13T02:34:51.451Z,1.77
2017-11-13T02:37:20.337Z,2.03
2017-11-13T02:39:49.174Z,1.97
2017-11-13T02:42:18.031Z,2.50
2017-11-13T02:44:46.902Z,2.30
2017-11-13T02:47:15.745Z,1.90
2017-11-13T02:49:44.607Z,2.13
2017-11-13T02:52:13.480Z,2.00
2017-11-13T02:54:42.344Z,1.90
2017-11-13T02:57:11.198Z,1.73
2017-11-13T02:59:40.098Z,1.93
2017-11-13T03:02:08.937Z,2.33
2017-11-13T03:04:37.771Z,2.10
2017-11-13T03:07:06.635Z,2.23
2017-11-13T03:09:35.486Z,1.93
2017-11-13T03:12:04.381Z,2.20
2017-11-13T03:14:33.242Z,2.23
2017-11-13T03:17:02.092Z,2.00
2017-11-13T03:19:30.960Z,2.20
2017-11-13T03:21:59.823Z,2.47
2017-11-13T03:24:28.717Z,2.43
2017-11-13T03:26:57.598Z,2.20
2017-11-13T03:29:26.507Z,2.10
2017-11-13T03:31:55.427Z,2.10
2017-11-13T03:34:24.273Z,1.60
2017-11-13T03:36:53.147Z,1.80
2017-11-13T03:39:22.035Z,1.60
2017-11-13T03:41:50.886Z,2.10
2017-11-13T03:44:19.755Z,1.80
2017-11-13T03:46:48.604Z,1.40
2017-11-13T03:49:17.448Z,1.23
2017-11-13T03:51:46.302Z,1.57
2017-11-13T03:54:15.144Z,2.17
2017-11-13T03:56:44.005Z,2.23
2017-11-13T03:59:12.879Z,2.33
2017-11-13T04:01:41.738Z,2.53
2017-11-13T04:04:10.587Z,2.50
2017-11-13T04:06:39.469Z,2.20
2017-11-13T04:09:08.322Z,2.17
2017-11-13T04:11:37.185Z,2.27
2017-11-13T04:14:06.063Z,2.50
2017-11-13T04:16:36.549Z,1.87
2017-11-13T04:19:05.450Z,3.00
2017-11-13T04:21:34.317Z,2.10
2017-11-13T04:24:03.170Z,2.57
2017-11-13T04:26:32.321Z,2.23
2017-11-13T04:29:01.849Z,2.60
2017-11-13T04:31:30.689Z,2.30
2017-11-13T04:33:59.532Z,2.60
2017-11-13T04:36:28.393Z,3.57
2017-11-13T04:38:57.234Z,2.13
2017-11-13T04:41:26.085Z,2.77
2017-11-13T04:43:54.944Z,2.53
2017-11-13T04:46:23.793Z,2.70
2017-11-13T04:48:52.638Z,3.20
2017-11-13T04:51:21.513Z,2.40
2017-11-13T04:53:50.353Z,2.33
2017-11-13T04:56:19.203Z,2.97
2017-11-13T04:58:48.071Z,2.10
2017-11-13T05:01:16.918Z,2.40
2017-11-13T05:03:45.749Z,2.93
2017-11-13T05:06:14.651Z,2.40
2017-11-13T05:08:43.544Z,2.40
2017-11-13T05:11:12.388Z,3.17
2017-11-13T05:13:41.283Z,3.30
2017-11-13T05:16:10.125Z,3.10
2017-11-13T05:18:38.975Z,2.97
2017-11-13T05:21:07.853Z,2.70
2017-11-13T05:23:36.691Z,2.83
2017-11-13T05:26:05.543Z,2.87
2017-11-13T05:28:34.419Z,3.20
2017-11-13T05:31:03.837Z,3.47
2017-11-13T05:33:33.020Z,3.37
2017-11-13T05:36:01.889Z,3.27
2017-11-13T05:38:31.654Z,3.60
2017-11-13T05:41:00.534Z,3.57
2017-11-13T05:43:29.395Z,3.23
2017-11-13T05:45:58.258Z,3.47
2017-11-13T05:48:27.104Z,3.30
2017-11-13T05:50:55.979Z,3.00
2017-11-13T05:53:24.831Z,4.83
2017-11-13T05:55:53.689Z,4.27
2017-11-13T05:58:22.581Z,3.30
2017-11-13T06:00:51.836Z,3.43
2017-11-13T06:03:20.696Z,3.30
2017-11-13T06:05:49.604Z,3.60
2017-11-13T06:08:18.445Z,3.77
2017-11-13T06:10:47.431Z,4.10
2017-11-13T06:13:17.451Z,3.20
2017-11-13T06:15:47.015Z,3.97
2017-11-13T06:18:16.517Z,3.47
2017-11-13T06:20:45.482Z,4.27
2017-11-13T06:23:14.375Z,3.67
2017-11-13T06:25:43.249Z,3.70
2017-11-13T06:28:12.113Z,3.23
2017-11-13T06:30:41.009Z,3.63
2017-11-13T06:33:09.849Z,3.93
2017-11-13T06:35:39.637Z,3.57
2017-11-13T06:38:08.537Z,2.93
2017-11-13T06:40:37.377Z,3.40
2017-11-13T06:43:06.302Z,19.60
2017-11-13T06:45:35.146Z,2.87
2017-11-13T06:48:03.993Z,3.53
2017-11-13T06:50:32.892Z,3.53
2017-11-13T06:53:02.533Z,3.23
2017-11-13T06:55:31.377Z,3.87
2017-11-13T06:58:00.273Z,3.07
2017-11-13T07:00:29.113Z,3.40
2017-11-13T07:02:57.975Z,21.97
2017-11-13T07:05:26.849Z,4.10
2017-11-13T07:07:56.369Z,3.13
2017-11-13T07:10:25.258Z,3.27
2017-11-13T07:12:54.136Z,4.50
2017-11-13T07:15:22.981Z,3.53
2017-11-13T07:17:51.845Z,3.83
2017-11-13T07:20:20.773Z,3.50
2017-11-13T07:22:49.613Z,3.00
2017-11-13T07:25:19.435Z,3.10
2017-11-13T07:27:49.453Z,3.67
2017-11-13T07:30:19.061Z,3.20
2017-11-13T07:32:47.932Z,3.97
2017-11-13T07:35:16.826Z,4.07
2017-11-13T07:37:45.659Z,3.40
2017-11-13T07:40:14.509Z,3.10
2017-11-13T07:42:43.376Z,3.27
2017-11-13T07:45:12.235Z,3.03
2017-11-13T07:47:42.015Z,3.37
2017-11-13T07:50:11.587Z,2.47
2017-11-13T07:52:40.433Z,2.57
2017-11-13T07:55:09.313Z,2.83
2017-11-13T07:57:38.185Z,2.50
2017-11-13T08:00:07.025Z,2.67
2017-11-13T08:02:35.869Z,3.00
2017-11-13T08:05:04.793Z,2.83
2017-11-13T08:07:33.649Z,3.17
2017-11-13T08:10:02.512Z,2.90
2017-11-13T08:12:31.383Z,2.77
2017-11-13T08:15:00.228Z,11.87
2017-11-13T08:17:29.061Z,3.17
2017-11-13T08:19:58.753Z,3.00
2017-11-13T08:22:27.626Z,4.17
2017-11-13T08:24:57.177Z,3.03
2017-11-13T08:27:26.040Z,3.00
2017-11-13T08:29:54.889Z,2.80
2017-11-13T08:32:23.760Z,2.77
2017-11-13T08:34:52.645Z,2.43
2017-11-13T08:37:21.495Z,2.77
2017-11-13T08:39:50.576Z,2.87
2017-11-13T08:42:19.453Z,3.07
2017-11-13T08:44:48.327Z,2.43
2017-11-13T08:47:17.189Z,2.57
2017-11-13T08:49:46.056Z,2.37
2017-11-13T08:52:14.927Z,2.03
2017-11-13T08:54:43.762Z,2.37
2017-11-13T08:57:12.641Z,2.43
2017-11-13T08:59:41.484Z,2.83
2017-11-13T09:02:10.339Z,2.80
2017-11-13T09:04:39.199Z,2.73
2017-11-13T09:07:08.037Z,2.43
2017-11-13T09:09:37.699Z,2.50
2017-11-13T09:12:06.615Z,2.37
2017-11-13T09:14:35.454Z,2.20
2017-11-13T09:17:04.308Z,2.80
2017-11-13T09:19:33.175Z,2.80
2017-11-13T09:22:02.189Z,2.30
2017-11-13T09:24:31.104Z,2.40
2017-11-13T09:26:59.973Z,2.40
2017-11-13T09:29:28.810Z,3.40
2017-11-13T09:31:57.701Z,2.80
2017-11-13T09:34:26.568Z,2.23
2017-11-13T09:36:55.398Z,2.47
2017-11-13T09:39:24.243Z,2.47
2017-11-13T09:41:53.165Z,2.53
2017-11-13T09:44:22.064Z,3.20
2017-11-13T09:46:51.232Z,2.87
2017-11-13T09:49:20.953Z,2.50
2017-11-13T09:51:49.853Z,2.43
2017-11-13T09:54:18.922Z,2.30
2017-11-13T09:56:47.823Z,3.07
2017-11-13T09:59:16.715Z,3.37
2017-11-13T10:01:45.885Z,2.37
2017-11-13T10:04:14.883Z,2.90
2017-11-13T10:06:43.794Z,2.40
2017-11-13T10:09:12.688Z,2.10
2017-11-13T10:11:41.646Z,1.93
2017-11-13T10:14:11.836Z,2.63
2017-11-13T10:16:40.778Z,2.43
2017-11-13T10:19:09.714Z,2.50
2017-11-13T10:21:38.612Z,2.30
2017-11-13T10:24:07.500Z,2.60
2017-11-13T10:26:36.464Z,2.60
2017-11-13T10:29:05.388Z,2.80
2017-11-13T10:31:34.294Z,2.50
2017-11-13T10:34:03.737Z,3.20
2017-11-13T10:36:32.662Z,2.57
2017-11-13T10:39:01.565Z,2.60
2017-11-13T10:41:30.592Z,2.73
2017-11-13T10:43:59.479Z,2.60
2017-11-13T10:46:28.387Z,2.63
2017-11-13T10:48:57.362Z,3.17
2017-11-13T10:51:26.269Z,2.83
2017-11-13T10:53:57.086Z,2.97
2017-11-13T10:56:25.992Z,2.50
2017-11-13T10:58:54.917Z,2.70
2017-11-13T11:01:23.842Z,2.30
2017-11-13T11:03:52.770Z,2.73
2017-11-13T11:06:21.682Z,2.53
2017-11-13T11:08:50.578Z,2.13
2017-11-13T11:11:19.493Z,2.80
2017-11-13T11:14:04.366Z,3.00
2017-11-13T11:16:35.816Z,2.50
2017-11-13T11:19:10.393Z,2.43
2017-11-13T11:21:55.096Z,2.77
2017-11-13T11:24:25.245Z,2.60
2017-11-13T11:26:54.337Z,2.40
2017-11-13T11:29:28.994Z,2.60
2017-11-13T11:32:12.762Z,2.33
2017-11-13T11:34:47.518Z,2.50
2017-11-13T11:37:16.419Z,2.33
2017-11-13T11:39:45.319Z,4.43
2017-11-13T11:42:14.242Z,2.40
2017-11-13T11:44:58.014Z,2.23
2017-11-13T11:47:27.748Z,2.53
2017-11-13T11:49:57.554Z,2.77
2017-11-13T11:52:27.431Z,2.20
2017-11-13T11:55:17.560Z,2.37
2017-11-13T11:57:46.511Z,2.60
2017-11-13T12:00:15.406Z,2.40
2017-11-13T12:02:44.294Z,2.73
2017-11-13T12:05:13.216Z,2.63
2017-11-13T12:07:42.131Z,2.63
2017-11-13T12:10:11.052Z,3.07
2017-11-13T12:12:39.982Z,2.63
2017-11-13T12:15:08.936Z,3.60
2017-11-13T12:17:37.825Z,3.33
2017-11-13T12:20:06.764Z,2.67
2017-11-13T12:22:35.671Z,2.50
2017-11-13T12:25:04.574Z,2.30
2017-11-13T12:27:33.505Z,2.63
2017-11-13T12:30:02.430Z,9.87
2017-11-13T12:32:31.471Z,3.37
2017-11-13T12:35:00.464Z,2.67
2017-11-13T12:37:29.359Z,3.13
2017-11-13T12:39:58.259Z,2.70
2017-11-13T12:42:28.026Z,4.10
2017-11-13T12:44:57.030Z,2.67
2017-11-13T12:47:25.946Z,2.40
2017-11-13T12:49:54.977Z,2.77
2017-11-13T12:52:24.584Z,3.10
2017-11-13T12:54:53.548Z,2.90
2017-11-13T12:57:22.481Z,2.53
2017-11-13T12:59:51.465Z,3.10
2017-11-13T13:02:20.387Z,2.40
2017-11-13T13:04:49.310Z,3.10
2017-11-13T13:07:18.337Z,2.80
2017-11-13T13:09:47.230Z,2.50
2017-11-13T13:12:16.167Z,5.57
2017-11-13T13:14:45.225Z,4.30
2017-11-13T13:17:14.243Z,3.80
2017-11-13T13:19:43.511Z,3.10
2017-11-13T13:22:12.978Z,3.70
2017-11-13T13:24:41.918Z,3.93
2017-11-13T13:27:10.840Z,2.67
2017-11-13T13:29:39.745Z,2.83
2017-11-13T13:32:08.807Z,2.90
2017-11-13T13:34:37.742Z,3.23
2017-11-13T13:37:06.642Z,2.97
2017-11-13T13:39:36.127Z,3.07
2017-11-13T13:42:11.381Z,3.07
2017-11-13T13:44:40.301Z,3.27
2017-11-13T13:47:09.226Z,2.63
2017-11-13T13:49:38.147Z,2.40
2017-11-13T13:52:07.168Z,2.60
2017-11-13T13:54:36.195Z,3.50
2017-11-13T13:57:05.161Z,3.07
2017-11-13T13:59:34.063Z,2.87
2017-11-13T14:02:03.079Z,2.90
2017-11-13T14:04:32.120Z,2.50
2017-11-13T14:07:01.068Z,2.50
2017-11-13T14:09:30.730Z,2.80
2017-11-13T14:11:59.820Z,2.10
2017-11-13T14:14:29.053Z,2.17
2017-11-13T14:16:57.946Z,2.57
2017-11-13T14:19:26.930Z,2.30
2017-11-13T14:21:55.856Z,2.40
2017-11-13T14:24:24.748Z,8.37
2017-11-13T14:26:53.826Z,17.57
2017-11-13T14:29:22.741Z,2.40
2017-11-13T14:31:51.640Z,2.50
2017-11-13T14:34:20.564Z,2.40
2017-11-13T14:36:49.487Z,2.10
2017-11-13T14:39:18.464Z,1.97
2017-11-13T14:41:47.403Z,2.00
2017-11-13T14:44:16.310Z,1.53
2017-11-13T14:46:46.090Z,2.10
2017-11-13T14:49:15.022Z,2.10
2017-11-13T14:51:43.905Z,2.30
2017-11-13T14:54:12.835Z,2.23
2017-11-13T14:56:41.757Z,3.20
2017-11-13T14:59:10.687Z,2.37
2017-11-13T15:01:39.624Z,2.30
2017-11-13T15:04:08.595Z,1.97
2017-11-13T15:06:46.328Z,2.50
2017-11-13T15:09:15.217Z,2.07
2017-11-13T15:11:45.051Z,2.33
2017-11-13T15:14:13.895Z,2.30
2017-11-13T15:16:42.776Z,2.10
2017-11-13T15:19:11.624Z,2.77
2017-11-13T15:21:40.461Z,2.90
2017-11-13T15:24:09.322Z,2.50
2017-11-13T15:26:38.156Z,2.17
2017-11-13T15:29:07.000Z,2.10
2017-11-13T15:31:35.949Z,2.00
2017-11-13T15:34:04.817Z,2.70
2017-11-13T15:36:33.694Z,2.50
2017-11-13T15:39:03.464Z,2.50
2017-11-13T15:41:32.355Z,2.90
2017-11-13T15:44:01.199Z,2.90
2017-11-13T15:46:30.500Z,2.23
2017-11-13T15:48:59.376Z,2.33
2017-11-13T15:51:28.589Z,2.90
2017-11-13T15:53:57.504Z,2.80
2017-11-13T15:56:26.364Z,3.23
2017-11-13T15:58:55.228Z,2.93
2017-11-13T16:01:24.266Z,2.80
2017-11-13T16:03:53.799Z,2.63
2017-11-13T16:06:22.660Z,3.57
2017-11-13T16:08:51.563Z,3.03
2017-11-13T16:11:20.447Z,2.37
2017-11-13T16:13:49.289Z,3.33
2017-11-13T16:16:18.240Z,3.10
2017-11-13T16:18:47.694Z,4.20
2017-11-13T16:21:16.566Z,3.27
2017-11-13T16:23:45.446Z,2.70
2017-11-13T16:26:14.904Z,2.77
2017-11-13T16:28:43.762Z,2.60
2017-11-13T16:31:12.711Z,3.30
2017-11-13T16:33:41.582Z,3.40
2017-11-13T16:36:11.238Z,4.57
2017-11-13T16:38:40.119Z,2.73
2017-11-13T16:41:09.802Z,3.20
2017-11-13T16:43:38.652Z,3.20
2017-11-13T16:46:07.569Z,2.97
2017-11-13T16:48:36.472Z,2.80
2017-11-13T16:51:05.338Z,3.10
2017-11-13T16:53:34.261Z,3.00
2017-11-13T16:56:03.122Z,3.20
2017-11-13T16:58:31.997Z,3.23
2017-11-13T17:01:00.905Z,2.50
2017-11-13T17:03:29.792Z,2.87
2017-11-13T17:05:59.470Z,2.80
2017-11-13T17:08:28.338Z,5.43
2017-11-13T17:10:57.930Z,3.07
2017-11-13T17:13:26.838Z,3.13
2017-11-13T17:15:55.738Z,3.87
2017-11-13T17:18:24.617Z,4.73
2017-11-13T17:20:53.472Z,4.53
2017-11-13T17:23:22.394Z,4.87
2017-11-13T17:25:51.266Z,4.63
2017-11-13T17:28:20.125Z,4.00
2017-11-13T17:30:49.226Z,5.30
2017-11-13T17:33:18.072Z,3.77
2017-11-13T17:35:47.163Z,3.80
2017-11-13T17:38:16.183Z,4.83
2017-11-13T17:40:45.029Z,6.90
2017-11-13T17:43:13.906Z,11.57
2017-11-13T17:45:42.793Z,5.40
2017-11-13T17:48:12.586Z,5.83
2017-11-13T17:50:41.475Z,5.90
2017-11-13T17:53:10.914Z,12.70
2017-11-13T17:55:39.797Z,5.70
2017-11-13T17:58:08.678Z,5.40
2017-11-13T18:00:37.581Z,5.87
2017-11-13T18:03:06.463Z,8.07
2017-11-13T18:05:36.112Z,24.23
2017-11-13T18:08:05.009Z,18.47
2017-11-13T18:10:33.875Z,7.13
2017-11-13T18:13:02.753Z,28.00
2017-11-13T18:15:31.632Z,6.03
2017-11-13T18:18:00.489Z,6.10
2017-11-13T18:20:29.352Z,5.93
2017-11-13T18:22:58.240Z,5.57
2017-11-13T18:25:27.702Z,9.20
2017-11-13T18:27:57.777Z,5.17
2017-11-13T18:30:26.712Z,7.80
2017-11-13T18:32:55.575Z,8.40
2017-11-13T18:35:24.417Z,9.63
2017-11-13T18:37:53.510Z,6.63
2017-11-13T18:40:23.170Z,11.23
2017-11-13T18:42:52.026Z,10.57
2017-11-13T18:45:20.917Z,7.93
2017-11-13T18:47:49.762Z,7.03
2017-11-13T18:50:18.622Z,5.13
2017-11-13T18:52:47.639Z,6.93
2017-11-13T18:55:16.490Z,6.07
2017-11-13T18:57:45.325Z,5.00
2017-11-13T19:00:14.254Z,4.90
2017-11-13T19:02:43.184Z,4.70
2017-11-13T19:05:12.073Z,8.40
2017-11-13T19:07:41.702Z,8.60
2017-11-13T19:10:10.583Z,14.40
2017-11-13T19:12:39.437Z,5.03
2017-11-13T19:15:08.313Z,6.07
2017-11-13T19:17:37.271Z,4.70
2017-11-13T19:20:06.108Z,5.00
2017-11-13T19:22:35.003Z,9.07
2017-11-13T19:25:03.878Z,7.50
2017-11-13T19:27:33.252Z,5.57
2017-11-13T19:30:02.866Z,7.43
2017-11-13T19:32:31.723Z,5.83
2017-11-13T19:35:00.581Z,6.53
2017-11-13T19:37:29.453Z,5.30
2017-11-13T19:39:58.310Z,5.73
2017-11-13T19:42:27.210Z,5.43
2017-11-13T19:44:56.565Z,9.47
2017-11-13T19:47:25.402Z,12.87
2017-11-13T19:49:54.252Z,10.87
2017-11-13T19:52:23.119Z,9.90
2017-11-13T19:54:51.967Z,9.83
2017-11-13T19:57:20.842Z,11.53
2017-11-13T19:59:50.325Z,11.53
2017-11-13T20:02:19.177Z,11.97
2017-11-13T20:04:48.022Z,13.30
2017-11-13T20:07:16.955Z,12.47
2017-11-13T20:09:46.002Z,15.70
2017-11-13T20:12:16.429Z,20.93
2017-11-13T20:14:45.320Z,13.93
2017-11-13T20:17:14.170Z,11.33
2017-11-13T20:19:43.058Z,13.53
2017-11-13T20:22:12.151Z,7.47
2017-11-13T20:24:41.017Z,7.03
2017-11-13T20:27:09.941Z,5.57
2017-11-13T20:29:38.814Z,5.17
2017-11-13T20:32:08.405Z,6.83
2017-11-13T20:34:38.227Z,6.53
2017-11-13T20:37:07.129Z,5.73
2017-11-13T20:39:37.284Z,7.20
2017-11-13T20:42:06.245Z,6.93
2017-11-13T20:44:35.206Z,6.67
2017-11-13T20:47:04.059Z,6.10
2017-11-13T20:49:32.899Z,7.80
2017-11-13T20:52:01.769Z,6.57
2017-11-13T20:54:30.706Z,7.27
2017-11-13T20:56:59.553Z,7.50
2017-11-13T20:59:28.459Z,11.13
2017-11-13T21:01:57.309Z,11.67
2017-11-13T21:04:26.171Z,11.80
2017-11-13T21:06:55.039Z,6.37
2017-11-13T21:09:23.967Z,12.13
2017-11-13T21:11:52.805Z,10.83
2017-11-13T21:14:21.686Z,8.63
2017-11-13T21:16:50.545Z,9.90
2017-11-13T21:19:20.034Z,9.27
2017-11-13T21:21:48.966Z,8.90
2017-11-13T21:24:17.816Z,9.03
2017-11-13T21:26:46.676Z,8.30
2017-11-13T21:29:15.566Z,6.97
2017-11-13T21:31:44.408Z,8.00
2017-11-13T21:34:13.273Z,8.97
2017-11-13T21:36:42.204Z,8.43
2017-11-13T21:39:11.069Z,6.93
2017-11-13T21:41:41.351Z,8.77
2017-11-13T21:46:45.521Z,8.23
2017-11-13T21:49:14.401Z,6.30
2017-11-13T21:51:44.134Z,8.20
2017-11-13T21:54:13.019Z,9.07
2017-11-13T21:56:41.884Z,7.17
2017-11-13T21:59:10.741Z,6.37
2017-11-13T22:01:39.592Z,10.67
2017-11-13T22:04:09.377Z,8.10
2017-11-13T22:06:38.276Z,21.53
2017-11-13T22:09:07.141Z,25.17
2017-11-13T22:11:36.031Z,12.70
2017-11-13T22:14:04.881Z,11.23
2017-11-13T22:16:33.737Z,12.57
2017-11-13T22:19:02.618Z,9.43
2017-11-13T22:21:31.467Z,11.63
2017-11-13T22:24:00.329Z,8.43
2017-11-13T22:26:29.239Z,7.40
2017-11-13T22:28:58.085Z,8.10
2017-11-13T22:31:26.963Z,8.47
2017-11-13T22:33:55.841Z,7.30
2017-11-13T22:36:25.354Z,8.57
2017-11-13T22:38:54.265Z,6.87
2017-11-13T22:41:23.139Z,6.20
2017-11-13T22:43:52.018Z,8.27
2017-11-13T22:46:20.873Z,7.80
2017-11-13T22:48:50.477Z,8.17
2017-11-13T22:51:19.374Z,6.63
2017-11-13T22:53:48.276Z,6.93
2017-11-13T22:56:17.146Z,8.63
2017-11-13T22:58:45.979Z,6.30
2017-11-13T23:01:14.835Z,8.23
2017-11-13T23:03:43.743Z,10.17
2017-11-13T23:06:12.586Z,9.93
2017-11-13T23:08:41.441Z,7.93
2017-11-13T23:11:10.352Z,7.00
2017-11-13T23:13:39.971Z,9.93
2017-11-13T23:16:08.823Z,9.93
2017-11-13T23:18:37.715Z,9.93
2017-11-13T23:21:06.582Z,8.43
2017-11-13T23:23:35.429Z,11.80
2017-11-13T23:26:04.295Z,8.77
2017-11-13T23:28:33.237Z,7.07
2017-11-13T23:31:02.109Z,11.20
2017-11-13T23:33:30.985Z,11.00
2017-11-13T23:35:59.986Z,10.60
2017-11-13T23:38:28.833Z,11.43
2017-11-13T23:40:57.719Z,11.03
2017-11-13T23:43:26.596Z,12.20
2017-11-13T23:45:55.457Z,11.77
2017-11-13T23:48:24.340Z,10.10
2017-11-13T23:50:53.225Z,11.13
2017-11-13T23:53:22.093Z,11.50
2017-11-13T23:55:51.055Z,11.50
2017-11-13T23:58:20.101Z,11.00
